sensor_id;sensor_type;location;lat;lon;timestamp;temperature;humidity
16128;DHT22;8168;49.036;7.690;2022-11-12T00:01:28;6.10;99.90
16128;DHT22;8168;49.036;7.690;2022-11-12T00:03:59;6.10;99.90
16128;DHT22;8168;49.036;7.690;2022-11-12T00:06:29;6.10;99.90
16128;DHT22;8168;49.036;7.690;2022-11-12T00:09:00;6.10;99.90
16128;DHT22;8168;49.036;7.690;2022-11-12T00:11:33;6.00;99.90
16128;DHT22;8168;49.036;7.690;2022-11-12T00:14:04;6.00;99.90
16128;DHT22;8168;49.036;7.690;2022-11-12T00:16:35;6.00;99.90
16128;DHT22;8168;49.036;7.690;2022-11-12T00:19:05;6.10;99.90
16128;DHT22;8168;49.036;7.690;2022-11-12T00:21:36;6.00;99.90
16128;DHT22;8168;49.036;7.690;2022-11-12T00:24:06;6.00;99.90
16128;DHT22;8168;49.036;7.690;2022-11-12T00:26:37;6.10;99.90
16128;DHT22;8168;49.036;7.690;2022-11-12T00:29:08;6.20;99.90
16128;DHT22;8168;49.036;7.690;2022-11-12T00:31:38;6.10;99.90
16128;DHT22;8168;49.036;7.690;2022-11-12T00:34:09;6.20;99.90
16128;DHT22;8168;49.036;7.690;2022-11-12T00:36:39;6.20;99.90
16128;DHT22;8168;49.036;7.690;2022-11-12T00:39:10;6.20;99.90
16128;DHT22;8168;49.036;7.690;2022-11-12T00:41:40;6.70;99.90
16128;DHT22;8168;49.036;7.690;2022-11-12T00:44:11;6.20;99.90
16128;DHT22;8168;49.036;7.690;2022-11-12T00:46:42;6.20;99.90
16128;DHT22;8168;49.036;7.690;2022-11-12T00:49:12;6.50;99.90
16128;DHT22;8168;49.036;7.690;2022-11-12T00:51:43;6.30;99.90
16128;DHT22;8168;49.036;7.690;2022-11-12T00:54:14;6.20;99.90
16128;DHT22;8168;49.036;7.690;2022-11-12T00:56:46;6.20;99.90
16128;DHT22;8168;49.036;7.690;2022-11-12T00:59:17;6.20;99.90
16128;DHT22;8168;49.036;7.690;2022-11-12T01:01:48;6.20;99.90
16128;DHT22;8168;49.036;7.690;2022-11-12T01:04:19;6.20;99.90
16128;DHT22;8168;49.036;7.690;2022-11-12T01:06:49;6.30;99.90
16128;DHT22;8168;49.036;7.690;2022-11-12T01:09:20;6.20;99.90
16128;DHT22;8168;49.036;7.690;2022-11-12T01:11:51;6.10;99.90
16128;DHT22;8168;49.036;7.690;2022-11-12T01:14:21;6.10;99.90
16128;DHT22;8168;49.036;7.690;2022-11-12T01:16:52;6.10;99.90
16128;DHT22;8168;49.036;7.690;2022-11-12T01:19:22;6.20;99.90
16128;DHT22;8168;49.036;7.690;2022-11-12T01:21:53;6.10;99.90
16128;DHT22;8168;49.036;7.690;2022-11-12T01:24:23;6.10;99.90
16128;DHT22;8168;49.036;7.690;2022-11-12T01:26:54;6.10;99.90
16128;DHT22;8168;49.036;7.690;2022-11-12T01:29:25;6.20;99.90
16128;DHT22;8168;49.036;7.690;2022-11-12T01:31:55;6.60;99.90
16128;DHT22;8168;49.036;7.690;2022-11-12T01:34:26;6.20;99.90
16128;DHT22;8168;49.036;7.690;2022-11-12T01:36:57;6.10;99.90
16128;DHT22;8168;49.036;7.690;2022-11-12T01:39:27;6.10;99.90
16128;DHT22;8168;49.036;7.690;2022-11-12T01:41:58;6.10;99.90
16128;DHT22;8168;49.036;7.690;2022-11-12T01:44:33;6.20;99.90
16128;DHT22;8168;49.036;7.690;2022-11-12T01:47:31;6.20;99.90
16128;DHT22;8168;49.036;7.690;2022-11-12T01:53:01;6.10;99.90
16128;DHT22;8168;49.036;7.690;2022-11-12T01:55:36;6.00;99.90
16128;DHT22;8168;49.036;7.690;2022-11-12T01:58:10;6.00;99.90
16128;DHT22;8168;49.036;7.690;2022-11-12T02:00:41;6.10;99.90
16128;DHT22;8168;49.036;7.690;2022-11-12T02:03:17;6.00;99.90
16128;DHT22;8168;49.036;7.690;2022-11-12T02:05:52;5.70;99.90
16128;DHT22;8168;49.036;7.690;2022-11-12T02:08:24;6.40;99.90
16128;DHT22;8168;49.036;7.690;2022-11-12T02:10:56;5.80;99.90
16128;DHT22;8168;49.036;7.690;2022-11-12T02:13:26;5.80;99.90
16128;DHT22;8168;49.036;7.690;2022-11-12T02:16:16;5.80;99.90
16128;DHT22;8168;49.036;7.690;2022-11-12T02:18:46;5.80;99.90
16128;DHT22;8168;49.036;7.690;2022-11-12T02:21:22;5.80;99.90
16128;DHT22;8168;49.036;7.690;2022-11-12T02:23:57;5.70;99.90
16128;DHT22;8168;49.036;7.690;2022-11-12T02:26:33;5.60;99.90
16128;DHT22;8168;49.036;7.690;2022-11-12T02:29:04;5.70;99.90
16128;DHT22;8168;49.036;7.690;2022-11-12T02:31:35;5.70;99.90
16128;DHT22;8168;49.036;7.690;2022-11-12T02:34:05;5.70;99.90
16128;DHT22;8168;49.036;7.690;2022-11-12T02:36:36;5.80;99.90
16128;DHT22;8168;49.036;7.690;2022-11-12T02:39:07;5.60;99.90
16128;DHT22;8168;49.036;7.690;2022-11-12T02:41:37;5.70;99.90
16128;DHT22;8168;49.036;7.690;2022-11-12T02:44:08;5.70;99.90
16128;DHT22;8168;49.036;7.690;2022-11-12T02:46:38;5.70;99.90
16128;DHT22;8168;49.036;7.690;2022-11-12T02:49:09;5.60;99.90
16128;DHT22;8168;49.036;7.690;2022-11-12T02:51:40;5.50;99.90
16128;DHT22;8168;49.036;7.690;2022-11-12T02:54:10;5.60;99.90
16128;DHT22;8168;49.036;7.690;2022-11-12T02:56:41;5.60;99.90
16128;DHT22;8168;49.036;7.690;2022-11-12T02:59:11;5.60;99.90
16128;DHT22;8168;49.036;7.690;2022-11-12T03:01:42;5.60;99.90
16128;DHT22;8168;49.036;7.690;2022-11-12T03:04:13;5.60;99.90
16128;DHT22;8168;49.036;7.690;2022-11-12T03:06:43;5.60;99.90
16128;DHT22;8168;49.036;7.690;2022-11-12T03:09:14;5.50;99.90
16128;DHT22;8168;49.036;7.690;2022-11-12T03:11:44;5.50;99.90
16128;DHT22;8168;49.036;7.690;2022-11-12T03:14:15;5.40;99.90
16128;DHT22;8168;49.036;7.690;2022-11-12T03:16:46;5.50;99.90
16128;DHT22;8168;49.036;7.690;2022-11-12T03:19:16;5.40;99.90
16128;DHT22;8168;49.036;7.690;2022-11-12T03:21:47;5.40;99.90
16128;DHT22;8168;49.036;7.690;2022-11-12T03:24:17;5.40;99.90
16128;DHT22;8168;49.036;7.690;2022-11-12T03:26:48;5.50;99.90
16128;DHT22;8168;49.036;7.690;2022-11-12T03:29:18;5.40;99.90
16128;DHT22;8168;49.036;7.690;2022-11-12T03:31:49;5.40;99.90
16128;DHT22;8168;49.036;7.690;2022-11-12T03:34:19;5.40;99.90
16128;DHT22;8168;49.036;7.690;2022-11-12T03:36:50;5.40;99.90
16128;DHT22;8168;49.036;7.690;2022-11-12T03:39:21;5.40;99.90
16128;DHT22;8168;49.036;7.690;2022-11-12T03:41:51;5.40;99.90
16128;DHT22;8168;49.036;7.690;2022-11-12T03:44:22;5.40;99.90
16128;DHT22;8168;49.036;7.690;2022-11-12T03:46:52;5.40;99.90
16128;DHT22;8168;49.036;7.690;2022-11-12T03:49:23;5.50;99.90
16128;DHT22;8168;49.036;7.690;2022-11-12T03:51:53;5.50;99.90
16128;DHT22;8168;49.036;7.690;2022-11-12T03:54:24;5.50;99.90
16128;DHT22;8168;49.036;7.690;2022-11-12T03:56:55;5.40;99.90
16128;DHT22;8168;49.036;7.690;2022-11-12T03:59:25;5.40;99.90
16128;DHT22;8168;49.036;7.690;2022-11-12T04:01:56;5.40;99.90
16128;DHT22;8168;49.036;7.690;2022-11-12T04:04:26;5.80;99.90
16128;DHT22;8168;49.036;7.690;2022-11-12T04:07:17;5.40;99.90
16128;DHT22;8168;49.036;7.690;2022-11-12T04:10:06;5.50;99.90
16128;DHT22;8168;49.036;7.690;2022-11-12T04:12:37;5.40;99.90
16128;DHT22;8168;49.036;7.690;2022-11-12T04:15:26;5.40;99.90
16128;DHT22;8168;49.036;7.690;2022-11-12T04:17:57;5.80;99.90
16128;DHT22;8168;49.036;7.690;2022-11-12T04:20:47;5.40;99.90
16128;DHT22;8168;49.036;7.690;2022-11-12T04:23:36;5.40;99.90
16128;DHT22;8168;49.036;7.690;2022-11-12T04:26:09;5.40;99.90
16128;DHT22;8168;49.036;7.690;2022-11-12T04:28:55;5.40;99.90
16128;DHT22;8168;49.036;7.690;2022-11-12T04:31:44;5.40;99.90
16128;DHT22;8168;49.036;7.690;2022-11-12T04:34:14;5.40;99.90
16128;DHT22;8168;49.036;7.690;2022-11-12T04:37:05;5.40;99.90
16128;DHT22;8168;49.036;7.690;2022-11-12T04:39:35;5.30;99.90
16128;DHT22;8168;49.036;7.690;2022-11-12T04:42:08;5.30;99.90
16128;DHT22;8168;49.036;7.690;2022-11-12T04:44:57;5.40;99.90
16128;DHT22;8168;49.036;7.690;2022-11-12T04:47:38;5.10;99.90
16128;DHT22;8168;49.036;7.690;2022-11-12T04:50:13;5.10;99.90
16128;DHT22;8168;49.036;7.690;2022-11-12T04:52:44;5.00;99.90
16128;DHT22;8168;49.036;7.690;2022-11-12T04:55:15;5.00;99.90
16128;DHT22;8168;49.036;7.690;2022-11-12T04:57:46;5.00;99.90
16128;DHT22;8168;49.036;7.690;2022-11-12T05:00:16;5.20;99.90
16128;DHT22;8168;49.036;7.690;2022-11-12T05:02:48;5.10;99.90
16128;DHT22;8168;49.036;7.690;2022-11-12T05:05:19;5.20;99.90
16128;DHT22;8168;49.036;7.690;2022-11-12T05:07:50;5.20;99.90
16128;DHT22;8168;49.036;7.690;2022-11-12T05:10:20;5.20;99.90
16128;DHT22;8168;49.036;7.690;2022-11-12T05:12:51;5.20;99.90
16128;DHT22;8168;49.036;7.690;2022-11-12T05:15:22;5.20;99.90
16128;DHT22;8168;49.036;7.690;2022-11-12T05:17:52;5.20;99.90
16128;DHT22;8168;49.036;7.690;2022-11-12T05:20:23;5.20;99.90
16128;DHT22;8168;49.036;7.690;2022-11-12T05:22:53;5.30;99.90
16128;DHT22;8168;49.036;7.690;2022-11-12T05:25:24;5.20;99.90
16128;DHT22;8168;49.036;7.690;2022-11-12T05:27:55;5.50;99.90
16128;DHT22;8168;49.036;7.690;2022-11-12T05:30:25;5.20;99.90
16128;DHT22;8168;49.036;7.690;2022-11-12T05:32:56;5.20;99.90
16128;DHT22;8168;49.036;7.690;2022-11-12T05:35:27;5.20;99.90
16128;DHT22;8168;49.036;7.690;2022-11-12T05:37:57;5.10;99.90
16128;DHT22;8168;49.036;7.690;2022-11-12T05:40:28;5.00;99.90
16128;DHT22;8168;49.036;7.690;2022-11-12T05:42:58;5.00;99.90
16128;DHT22;8168;49.036;7.690;2022-11-12T05:45:29;5.10;99.90
16128;DHT22;8168;49.036;7.690;2022-11-12T05:47:59;5.10;99.90
16128;DHT22;8168;49.036;7.690;2022-11-12T05:50:30;5.10;99.90
16128;DHT22;8168;49.036;7.690;2022-11-12T05:53:00;5.10;99.90
16128;DHT22;8168;49.036;7.690;2022-11-12T05:55:31;5.10;99.90
16128;DHT22;8168;49.036;7.690;2022-11-12T05:58:05;5.10;99.90
16128;DHT22;8168;49.036;7.690;2022-11-12T06:00:36;5.20;99.90
16128;DHT22;8168;49.036;7.690;2022-11-12T06:03:11;5.10;99.90
16128;DHT22;8168;49.036;7.690;2022-11-12T06:05:41;5.10;99.90
16128;DHT22;8168;49.036;7.690;2022-11-12T06:08:12;5.00;99.90
16128;DHT22;8168;49.036;7.690;2022-11-12T06:10:53;5.00;99.90
16128;DHT22;8168;49.036;7.690;2022-11-12T06:13:24;5.00;99.90
16128;DHT22;8168;49.036;7.690;2022-11-12T06:15:55;5.00;99.90
16128;DHT22;8168;49.036;7.690;2022-11-12T06:18:26;5.10;99.90
16128;DHT22;8168;49.036;7.690;2022-11-12T06:21:02;5.10;99.90
16128;DHT22;8168;49.036;7.690;2022-11-12T06:23:53;5.10;99.90
16128;DHT22;8168;49.036;7.690;2022-11-12T06:26:26;5.10;99.90
16128;DHT22;8168;49.036;7.690;2022-11-12T06:28:57;5.00;99.90
16128;DHT22;8168;49.036;7.690;2022-11-12T06:31:28;5.00;99.90
16128;DHT22;8168;49.036;7.690;2022-11-12T06:33:58;5.00;99.90
16128;DHT22;8168;49.036;7.690;2022-11-12T06:36:29;5.00;99.90
16128;DHT22;8168;49.036;7.690;2022-11-12T06:38:59;5.00;99.90
16128;DHT22;8168;49.036;7.690;2022-11-12T06:41:30;5.00;99.90
16128;DHT22;8168;49.036;7.690;2022-11-12T06:44:03;5.10;99.90
16128;DHT22;8168;49.036;7.690;2022-11-12T06:46:34;5.60;99.90
16128;DHT22;8168;49.036;7.690;2022-11-12T06:49:05;5.10;99.90
16128;DHT22;8168;49.036;7.690;2022-11-12T06:51:35;5.10;99.90
16128;DHT22;8168;49.036;7.690;2022-11-12T06:54:06;5.10;99.90
16128;DHT22;8168;49.036;7.690;2022-11-12T06:56:37;5.20;99.90
16128;DHT22;8168;49.036;7.690;2022-11-12T06:59:08;5.20;99.90
16128;DHT22;8168;49.036;7.690;2022-11-12T07:01:39;5.20;99.90
16128;DHT22;8168;49.036;7.690;2022-11-12T07:04:10;5.20;99.90
16128;DHT22;8168;49.036;7.690;2022-11-12T07:06:40;5.20;99.90
16128;DHT22;8168;49.036;7.690;2022-11-12T07:09:11;5.20;99.90
16128;DHT22;8168;49.036;7.690;2022-11-12T07:11:41;5.30;99.90
16128;DHT22;8168;49.036;7.690;2022-11-12T07:14:12;5.20;99.90
16128;DHT22;8168;49.036;7.690;2022-11-12T07:16:43;5.20;99.90
16128;DHT22;8168;49.036;7.690;2022-11-12T07:19:13;5.20;99.90
16128;DHT22;8168;49.036;7.690;2022-11-12T07:21:44;5.20;99.90
16128;DHT22;8168;49.036;7.690;2022-11-12T07:24:14;5.20;99.90
16128;DHT22;8168;49.036;7.690;2022-11-12T07:26:45;5.20;99.90
16128;DHT22;8168;49.036;7.690;2022-11-12T07:29:15;5.20;99.90
16128;DHT22;8168;49.036;7.690;2022-11-12T07:31:46;5.20;99.90
16128;DHT22;8168;49.036;7.690;2022-11-12T07:34:17;5.20;99.90
16128;DHT22;8168;49.036;7.690;2022-11-12T07:36:47;5.30;99.90
16128;DHT22;8168;49.036;7.690;2022-11-12T07:39:21;5.30;99.90
16128;DHT22;8168;49.036;7.690;2022-11-12T07:41:51;5.30;99.90
16128;DHT22;8168;49.036;7.690;2022-11-12T07:44:22;5.40;99.90
16128;DHT22;8168;49.036;7.690;2022-11-12T07:46:52;5.40;99.90
16128;DHT22;8168;49.036;7.690;2022-11-12T07:49:23;5.40;99.90
16128;DHT22;8168;49.036;7.690;2022-11-12T07:51:54;5.40;99.90
16128;DHT22;8168;49.036;7.690;2022-11-12T07:54:24;5.50;99.90
16128;DHT22;8168;49.036;7.690;2022-11-12T07:56:55;5.50;99.90
16128;DHT22;8168;49.036;7.690;2022-11-12T07:59:25;5.50;99.90
16128;DHT22;8168;49.036;7.690;2022-11-12T08:01:56;5.40;99.90
16128;DHT22;8168;49.036;7.690;2022-11-12T08:04:26;5.40;99.90
16128;DHT22;8168;49.036;7.690;2022-11-12T08:06:57;5.40;99.90
16128;DHT22;8168;49.036;7.690;2022-11-12T08:09:28;5.40;99.90
16128;DHT22;8168;49.036;7.690;2022-11-12T08:11:58;5.40;99.90
16128;DHT22;8168;49.036;7.690;2022-11-12T08:14:29;5.40;99.90
16128;DHT22;8168;49.036;7.690;2022-11-12T08:16:59;5.50;99.90
16128;DHT22;8168;49.036;7.690;2022-11-12T08:19:30;5.50;99.90
16128;DHT22;8168;49.036;7.690;2022-11-12T08:22:01;5.60;99.90
16128;DHT22;8168;49.036;7.690;2022-11-12T08:24:34;5.50;99.90
16128;DHT22;8168;49.036;7.690;2022-11-12T08:27:05;5.60;99.90
16128;DHT22;8168;49.036;7.690;2022-11-12T08:29:35;5.60;99.90
16128;DHT22;8168;49.036;7.690;2022-11-12T08:32:06;5.70;99.90
16128;DHT22;8168;49.036;7.690;2022-11-12T08:34:36;5.60;99.90
16128;DHT22;8168;49.036;7.690;2022-11-12T08:37:10;5.70;99.90
16128;DHT22;8168;49.036;7.690;2022-11-12T08:39:42;5.80;99.90
16128;DHT22;8168;49.036;7.690;2022-11-12T08:42:13;5.80;99.90
16128;DHT22;8168;49.036;7.690;2022-11-12T08:44:43;5.70;99.90
16128;DHT22;8168;49.036;7.690;2022-11-12T08:47:14;5.70;99.90
16128;DHT22;8168;49.036;7.690;2022-11-12T08:49:45;5.70;99.90
16128;DHT22;8168;49.036;7.690;2022-11-12T08:52:15;5.70;99.90
16128;DHT22;8168;49.036;7.690;2022-11-12T08:54:46;5.80;99.90
16128;DHT22;8168;49.036;7.690;2022-11-12T08:57:16;5.80;99.90
16128;DHT22;8168;49.036;7.690;2022-11-12T08:59:47;5.90;99.90
16128;DHT22;8168;49.036;7.690;2022-11-12T09:02:18;5.90;99.90
16128;DHT22;8168;49.036;7.690;2022-11-12T09:04:48;5.90;99.90
16128;DHT22;8168;49.036;7.690;2022-11-12T09:07:19;6.00;99.90
16128;DHT22;8168;49.036;7.690;2022-11-12T09:09:49;6.00;99.90
16128;DHT22;8168;49.036;7.690;2022-11-12T09:12:20;6.10;99.90
16128;DHT22;8168;49.036;7.690;2022-11-12T09:14:50;6.20;99.90
16128;DHT22;8168;49.036;7.690;2022-11-12T09:17:21;6.10;99.90
16128;DHT22;8168;49.036;7.690;2022-11-12T09:19:52;6.20;99.90
16128;DHT22;8168;49.036;7.690;2022-11-12T09:22:22;6.20;99.90
16128;DHT22;8168;49.036;7.690;2022-11-12T09:24:53;6.10;99.90
16128;DHT22;8168;49.036;7.690;2022-11-12T09:27:26;6.10;99.90
16128;DHT22;8168;49.036;7.690;2022-11-12T09:29:56;6.20;99.90
16128;DHT22;8168;49.036;7.690;2022-11-12T09:32:27;6.20;99.90
16128;DHT22;8168;49.036;7.690;2022-11-12T09:34:58;6.30;99.90
16128;DHT22;8168;49.036;7.690;2022-11-12T09:37:28;6.30;99.90
16128;DHT22;8168;49.036;7.690;2022-11-12T09:39:59;6.40;99.90
16128;DHT22;8168;49.036;7.690;2022-11-12T09:42:33;6.60;99.90
16128;DHT22;8168;49.036;7.690;2022-11-12T09:45:30;6.50;99.90
16128;DHT22;8168;49.036;7.690;2022-11-12T09:48:06;6.40;99.90
16128;DHT22;8168;49.036;7.690;2022-11-12T09:50:53;6.60;99.90
16128;DHT22;8168;49.036;7.690;2022-11-12T09:53:51;6.30;99.90
16128;DHT22;8168;49.036;7.690;2022-11-12T09:56:25;6.30;99.90
16128;DHT22;8168;49.036;7.690;2022-11-12T09:58:57;6.40;99.90
16128;DHT22;8168;49.036;7.690;2022-11-12T10:10:16;6.70;99.90
16128;DHT22;8168;49.036;7.690;2022-11-12T10:15:51;6.80;99.90
16128;DHT22;8168;49.036;7.690;2022-11-12T10:24:00;6.90;99.90
16128;DHT22;8168;49.036;7.690;2022-11-12T10:26:31;6.90;99.90
16128;DHT22;8168;49.036;7.690;2022-11-12T10:29:30;7.40;99.90
16128;DHT22;8168;49.036;7.690;2022-11-12T10:32:01;7.00;99.90
16128;DHT22;8168;49.036;7.690;2022-11-12T10:34:32;7.10;99.90
16128;DHT22;8168;49.036;7.690;2022-11-12T10:37:10;7.20;99.90
16128;DHT22;8168;49.036;7.690;2022-11-12T10:39:44;7.20;99.90
16128;DHT22;8168;49.036;7.690;2022-11-12T10:42:18;7.20;99.90
16128;DHT22;8168;49.036;7.690;2022-11-12T10:44:49;7.40;99.90
16128;DHT22;8168;49.036;7.690;2022-11-12T10:47:34;7.30;99.90
16128;DHT22;8168;49.036;7.690;2022-11-12T10:50:18;7.40;99.90
16128;DHT22;8168;49.036;7.690;2022-11-12T10:53:01;7.40;99.90
16128;DHT22;8168;49.036;7.690;2022-11-12T10:55:37;7.40;99.90
16128;DHT22;8168;49.036;7.690;2022-11-12T10:58:23;7.50;99.90
16128;DHT22;8168;49.036;7.690;2022-11-12T11:00:57;7.40;99.90
16128;DHT22;8168;49.036;7.690;2022-11-12T11:03:35;7.40;99.90
16128;DHT22;8168;49.036;7.690;2022-11-12T11:08:51;7.70;99.90
16128;DHT22;8168;49.036;7.690;2022-11-12T11:11:28;7.50;99.90
16128;DHT22;8168;49.036;7.690;2022-11-12T11:19:35;7.60;99.90
16128;DHT22;8168;49.036;7.690;2022-11-12T11:25:09;7.60;99.90
16128;DHT22;8168;49.036;7.690;2022-11-12T11:40:36;7.70;99.90
16128;DHT22;8168;49.036;7.690;2022-11-12T11:57:02;8.00;99.90
16128;DHT22;8168;49.036;7.690;2022-11-12T11:59:48;8.00;99.90
16128;DHT22;8168;49.036;7.690;2022-11-12T12:02:36;8.10;99.90
16128;DHT22;8168;49.036;7.690;2022-11-12T12:08:24;8.10;99.90
16128;DHT22;8168;49.036;7.690;2022-11-12T12:14:17;8.20;99.90
16128;DHT22;8168;49.036;7.690;2022-11-12T12:17:28;8.10;99.90
16128;DHT22;8168;49.036;7.690;2022-11-12T12:20:20;8.10;99.90
16128;DHT22;8168;49.036;7.690;2022-11-12T12:23:00;8.20;99.90
16128;DHT22;8168;49.036;7.690;2022-11-12T12:25:34;8.20;99.90
16128;DHT22;8168;49.036;7.690;2022-11-12T12:30:40;8.30;99.90
16128;DHT22;8168;49.036;7.690;2022-11-12T12:33:50;8.30;99.90
16128;DHT22;8168;49.036;7.690;2022-11-12T12:36:38;8.30;99.90
16128;DHT22;8168;49.036;7.690;2022-11-12T12:39:25;8.40;99.90
16128;DHT22;8168;49.036;7.690;2022-11-12T12:42:04;8.40;99.90
16128;DHT22;8168;49.036;7.690;2022-11-12T12:44:49;8.40;99.90
16128;DHT22;8168;49.036;7.690;2022-11-12T12:47:35;8.40;99.90
16128;DHT22;8168;49.036;7.690;2022-11-12T12:50:12;8.40;99.90
16128;DHT22;8168;49.036;7.690;2022-11-12T12:53:02;8.40;99.90
16128;DHT22;8168;49.036;7.690;2022-11-12T12:55:42;8.40;99.90
16128;DHT22;8168;49.036;7.690;2022-11-12T12:58:40;8.40;99.90
16128;DHT22;8168;49.036;7.690;2022-11-12T13:04:00;8.40;99.90
16128;DHT22;8168;49.036;7.690;2022-11-12T13:09:27;8.50;99.90
16128;DHT22;8168;49.036;7.690;2022-11-12T13:11:58;8.50;99.90
16128;DHT22;8168;49.036;7.690;2022-11-12T13:17:12;8.60;99.90
16128;DHT22;8168;49.036;7.690;2022-11-12T13:22:45;8.60;99.90
16128;DHT22;8168;49.036;7.690;2022-11-12T13:48:58;8.50;99.90
16128;DHT22;8168;49.036;7.690;2022-11-12T13:51:34;8.50;99.90
16128;DHT22;8168;49.036;7.690;2022-11-12T13:54:26;8.50;99.90
16128;DHT22;8168;49.036;7.690;2022-11-12T13:57:12;8.50;99.90
16128;DHT22;8168;49.036;7.690;2022-11-12T13:59:45;8.50;99.90
16128;DHT22;8168;49.036;7.690;2022-11-12T14:02:22;8.60;99.90
16128;DHT22;8168;49.036;7.690;2022-11-12T14:04:54;8.60;99.90
16128;DHT22;8168;49.036;7.690;2022-11-12T14:10:29;8.60;99.90
16128;DHT22;8168;49.036;7.690;2022-11-12T14:13:26;8.60;99.90
16128;DHT22;8168;49.036;7.690;2022-11-12T14:22:37;8.70;99.90
16128;DHT22;8168;49.036;7.690;2022-11-12T14:25:22;8.60;99.90
16128;DHT22;8168;49.036;7.690;2022-11-12T14:27:54;8.60;99.90
16128;DHT22;8168;49.036;7.690;2022-11-12T14:30:27;8.60;99.90
16128;DHT22;8168;49.036;7.690;2022-11-12T14:33:08;8.60;99.90
16128;DHT22;8168;49.036;7.690;2022-11-12T14:35:40;8.60;99.90
16128;DHT22;8168;49.036;7.690;2022-11-12T14:40:53;8.60;99.90
16128;DHT22;8168;49.036;7.690;2022-11-12T14:43:34;8.60;99.90
16128;DHT22;8168;49.036;7.690;2022-11-12T14:46:07;8.60;99.90
16128;DHT22;8168;49.036;7.690;2022-11-12T14:51:48;8.60;99.90
16128;DHT22;8168;49.036;7.690;2022-11-12T14:54:30;8.60;99.90
16128;DHT22;8168;49.036;7.690;2022-11-12T14:57:03;8.60;99.90
16128;DHT22;8168;49.036;7.690;2022-11-12T14:59:35;8.50;99.90
16128;DHT22;8168;49.036;7.690;2022-11-12T15:02:11;8.50;99.90
16128;DHT22;8168;49.036;7.690;2022-11-12T15:04:44;8.60;99.90
16128;DHT22;8168;49.036;7.690;2022-11-12T15:07:32;8.60;99.90
16128;DHT22;8168;49.036;7.690;2022-11-12T15:10:27;8.60;99.90
16128;DHT22;8168;49.036;7.690;2022-11-12T15:13:19;8.60;99.90
16128;DHT22;8168;49.036;7.690;2022-11-12T15:16:07;8.60;99.90
16128;DHT22;8168;49.036;7.690;2022-11-12T15:18:39;8.60;99.90
16128;DHT22;8168;49.036;7.690;2022-11-12T15:21:26;8.60;99.90
16128;DHT22;8168;49.036;7.690;2022-11-12T15:26:44;8.60;99.90
16128;DHT22;8168;49.036;7.690;2022-11-12T15:29:27;8.60;99.90
16128;DHT22;8168;49.036;7.690;2022-11-12T15:32:43;8.60;99.90
16128;DHT22;8168;49.036;7.690;2022-11-12T15:34:48;8.60;99.90
16128;DHT22;8168;49.036;7.690;2022-11-12T15:39:54;8.70;99.90
16128;DHT22;8168;49.036;7.690;2022-11-12T15:42:32;8.60;99.90
16128;DHT22;8168;49.036;7.690;2022-11-12T15:45:13;8.60;99.90
16128;DHT22;8168;49.036;7.690;2022-11-12T15:47:45;8.60;99.90
16128;DHT22;8168;49.036;7.690;2022-11-12T15:50:21;8.60;99.90
16128;DHT22;8168;49.036;7.690;2022-11-12T15:52:53;8.60;99.90
16128;DHT22;8168;49.036;7.690;2022-11-12T15:55:23;8.60;99.90
16128;DHT22;8168;49.036;7.690;2022-11-12T15:57:54;8.60;99.90
16128;DHT22;8168;49.036;7.690;2022-11-12T16:00:30;8.60;99.90
16128;DHT22;8168;49.036;7.690;2022-11-12T16:03:18;8.60;99.90
16128;DHT22;8168;49.036;7.690;2022-11-12T16:05:49;8.60;99.90
16128;DHT22;8168;49.036;7.690;2022-11-12T16:08:20;8.60;99.90
16128;DHT22;8168;49.036;7.690;2022-11-12T16:10:50;8.50;99.90
16128;DHT22;8168;49.036;7.690;2022-11-12T16:13:30;8.50;99.90
16128;DHT22;8168;49.036;7.690;2022-11-12T16:16:05;8.60;99.90
16128;DHT22;8168;49.036;7.690;2022-11-12T16:18:36;8.60;99.90
16128;DHT22;8168;49.036;7.690;2022-11-12T16:21:08;8.70;99.90
16128;DHT22;8168;49.036;7.690;2022-11-12T16:23:38;8.70;99.90
16128;DHT22;8168;49.036;7.690;2022-11-12T16:26:13;8.60;99.90
16128;DHT22;8168;49.036;7.690;2022-11-12T16:28:47;8.60;99.90
16128;DHT22;8168;49.036;7.690;2022-11-12T16:31:19;8.60;99.90
16128;DHT22;8168;49.036;7.690;2022-11-12T16:33:50;8.50;99.90
16128;DHT22;8168;49.036;7.690;2022-11-12T16:36:20;8.50;99.90
16128;DHT22;8168;49.036;7.690;2022-11-12T16:38:51;8.50;99.90
16128;DHT22;8168;49.036;7.690;2022-11-12T16:41:21;8.40;99.90
16128;DHT22;8168;49.036;7.690;2022-11-12T16:43:52;8.40;99.90
16128;DHT22;8168;49.036;7.690;2022-11-12T16:46:27;8.40;99.90
16128;DHT22;8168;49.036;7.690;2022-11-12T16:48:58;8.40;99.90
16128;DHT22;8168;49.036;7.690;2022-11-12T16:51:28;8.40;99.90
16128;DHT22;8168;49.036;7.690;2022-11-12T16:53:59;8.40;99.90
16128;DHT22;8168;49.036;7.690;2022-11-12T16:56:30;8.40;99.90
16128;DHT22;8168;49.036;7.690;2022-11-12T16:59:01;8.40;99.90
16128;DHT22;8168;49.036;7.690;2022-11-12T17:01:32;8.40;99.90
16128;DHT22;8168;49.036;7.690;2022-11-12T17:04:03;8.40;99.90
16128;DHT22;8168;49.036;7.690;2022-11-12T17:06:38;8.40;99.90
16128;DHT22;8168;49.036;7.690;2022-11-12T17:09:10;8.50;99.90
16128;DHT22;8168;49.036;7.690;2022-11-12T17:11:41;8.50;99.90
16128;DHT22;8168;49.036;7.690;2022-11-12T17:14:12;8.50;99.90
16128;DHT22;8168;49.036;7.690;2022-11-12T17:16:42;8.50;99.90
16128;DHT22;8168;49.036;7.690;2022-11-12T17:19:14;8.60;99.90
16128;DHT22;8168;49.036;7.690;2022-11-12T17:21:45;8.60;99.90
16128;DHT22;8168;49.036;7.690;2022-11-12T17:24:15;8.60;99.90
16128;DHT22;8168;49.036;7.690;2022-11-12T17:26:46;8.60;99.90
16128;DHT22;8168;49.036;7.690;2022-11-12T17:29:17;8.60;99.90
16128;DHT22;8168;49.036;7.690;2022-11-12T17:31:48;8.50;99.90
16128;DHT22;8168;49.036;7.690;2022-11-12T17:34:19;8.50;99.90
16128;DHT22;8168;49.036;7.690;2022-11-12T17:36:49;8.50;99.90
16128;DHT22;8168;49.036;7.690;2022-11-12T17:39:20;8.50;99.90
16128;DHT22;8168;49.036;7.690;2022-11-12T17:41:51;8.50;99.90
16128;DHT22;8168;49.036;7.690;2022-11-12T17:44:21;8.50;99.90
16128;DHT22;8168;49.036;7.690;2022-11-12T17:46:52;8.40;99.90
16128;DHT22;8168;49.036;7.690;2022-11-12T17:49:22;8.40;99.90
16128;DHT22;8168;49.036;7.690;2022-11-12T17:51:53;8.40;99.90
16128;DHT22;8168;49.036;7.690;2022-11-12T17:54:24;8.40;99.90
16128;DHT22;8168;49.036;7.690;2022-11-12T17:56:54;8.50;99.90
16128;DHT22;8168;49.036;7.690;2022-11-12T17:59:25;8.50;99.90
16128;DHT22;8168;49.036;7.690;2022-11-12T18:01:56;8.50;99.90
16128;DHT22;8168;49.036;7.690;2022-11-12T18:04:26;8.50;99.90
16128;DHT22;8168;49.036;7.690;2022-11-12T18:06:57;8.50;99.90
16128;DHT22;8168;49.036;7.690;2022-11-12T18:09:27;8.40;99.90
16128;DHT22;8168;49.036;7.690;2022-11-12T18:11:58;8.40;99.90
16128;DHT22;8168;49.036;7.690;2022-11-12T18:14:29;8.40;99.90
16128;DHT22;8168;49.036;7.690;2022-11-12T18:16:59;8.30;99.90
16128;DHT22;8168;49.036;7.690;2022-11-12T18:19:30;8.40;99.90
16128;DHT22;8168;49.036;7.690;2022-11-12T18:22:01;8.40;99.90
16128;DHT22;8168;49.036;7.690;2022-11-12T18:24:31;8.40;99.90
16128;DHT22;8168;49.036;7.690;2022-11-12T18:27:02;8.40;99.90
16128;DHT22;8168;49.036;7.690;2022-11-12T18:29:33;8.40;99.90
16128;DHT22;8168;49.036;7.690;2022-11-12T18:32:05;8.30;99.90
16128;DHT22;8168;49.036;7.690;2022-11-12T18:34:35;8.30;99.90
16128;DHT22;8168;49.036;7.690;2022-11-12T18:37:11;8.30;99.90
16128;DHT22;8168;49.036;7.690;2022-11-12T18:39:41;8.30;99.90
16128;DHT22;8168;49.036;7.690;2022-11-12T18:42:12;8.30;99.90
16128;DHT22;8168;49.036;7.690;2022-11-12T18:44:42;8.20;99.90
16128;DHT22;8168;49.036;7.690;2022-11-12T18:47:13;8.20;99.90